sensor_id;sensor_type;location;lat;lon;timestamp;P1;durP1;ratioP1;P2;durP2;ratioP2
32146;SDS011;32190;49.112;8.598;2023-03-14T00:04:47;0.20;;;0.20;;
32146;SDS011;32190;49.112;8.598;2023-03-14T00:10:40;0.43;;;0.30;;
32146;SDS011;32190;49.112;8.598;2023-03-14T00:16:31;0.25;;;0.25;;
32146;SDS011;32190;49.112;8.598;2023-03-14T00:22:21;0.47;;;0.30;;
32146;SDS011;32190;49.112;8.598;2023-03-14T00:28:12;0.28;;;0.25;;
32146;SDS011;32190;49.112;8.598;2023-03-14T00:34:02;0.20;;;0.20;;
32146;SDS011;32190;49.112;8.598;2023-03-14T00:39:53;0.30;;;0.30;;
32146;SDS011;32190;49.112;8.598;2023-03-14T00:45:44;0.30;;;0.30;;
32146;SDS011;32190;49.112;8.598;2023-03-14T00:51:34;0.47;;;0.30;;
32146;SDS011;32190;49.112;8.598;2023-03-14T00:57:25;0.28;;;0.28;;
32146;SDS011;32190;49.112;8.598;2023-03-14T01:03:15;0.40;;;0.30;;
32146;SDS011;32190;49.112;8.598;2023-03-14T01:09:06;0.22;;;0.22;;
32146;SDS011;32190;49.112;8.598;2023-03-14T01:14:56;0.30;;;0.30;;
32146;SDS011;32190;49.112;8.598;2023-03-14T01:20:47;0.20;;;0.20;;
32146;SDS011;32190;49.112;8.598;2023-03-14T01:26:38;0.20;;;0.20;;
32146;SDS011;32190;49.112;8.598;2023-03-14T01:32:28;0.20;;;0.20;;
32146;SDS011;32190;49.112;8.598;2023-03-14T01:38:19;0.50;;;0.50;;
32146;SDS011;32190;49.112;8.598;2023-03-14T01:44:10;0.73;;;0.30;;
32146;SDS011;32190;49.112;8.598;2023-03-14T01:50:04;0.30;;;0.30;;
32146;SDS011;32190;49.112;8.598;2023-03-14T01:55:59;0.98;;;0.60;;
32146;SDS011;32190;49.112;8.598;2023-03-14T02:01:50;0.30;;;0.30;;
32146;SDS011;32190;49.112;8.598;2023-03-14T02:07:45;0.43;;;0.30;;
32146;SDS011;32190;49.112;8.598;2023-03-14T02:13:39;0.20;;;0.20;;
32146;SDS011;32190;49.112;8.598;2023-03-14T02:31:47;0.40;;;0.40;;
32146;SDS011;32190;49.112;8.598;2023-03-14T02:37:40;0.20;;;0.20;;
32146;SDS011;32190;49.112;8.598;2023-03-14T03:02:25;0.30;;;0.30;;
32146;SDS011;32190;49.112;8.598;2023-03-14T03:08:18;0.47;;;0.20;;
32146;SDS011;32190;49.112;8.598;2023-03-14T03:14:09;0.93;;;0.40;;
32146;SDS011;32190;49.112;8.598;2023-03-14T03:20:00;0.38;;;0.32;;
32146;SDS011;32190;49.112;8.598;2023-03-14T03:25:51;1.70;;;0.35;;
32146;SDS011;32190;49.112;8.598;2023-03-14T03:31:41;0.88;;;0.50;;
32146;SDS011;32190;49.112;8.598;2023-03-14T03:37:33;1.65;;;0.20;;
32146;SDS011;32190;49.112;8.598;2023-03-14T03:43:24;1.02;;;0.30;;
32146;SDS011;32190;49.112;8.598;2023-03-14T03:49:14;0.40;;;0.30;;
32146;SDS011;32190;49.112;8.598;2023-03-14T03:55:05;0.82;;;0.40;;
32146;SDS011;32190;49.112;8.598;2023-03-14T04:00:56;2.13;;;0.35;;
32146;SDS011;32190;49.112;8.598;2023-03-14T04:06:46;0.75;;;0.32;;
32146;SDS011;32190;49.112;8.598;2023-03-14T04:12:37;0.30;;;0.30;;
32146;SDS011;32190;49.112;8.598;2023-03-14T04:18:27;0.63;;;0.30;;
32146;SDS011;32190;49.112;8.598;2023-03-14T04:24:20;0.75;;;0.30;;
32146;SDS011;32190;49.112;8.598;2023-03-14T04:30:10;0.57;;;0.40;;
32146;SDS011;32190;49.112;8.598;2023-03-14T04:36:01;0.43;;;0.30;;
32146;SDS011;32190;49.112;8.598;2023-03-14T04:41:51;0.63;;;0.40;;
32146;SDS011;32190;49.112;8.598;2023-03-14T04:47:42;0.30;;;0.30;;
32146;SDS011;32190;49.112;8.598;2023-03-14T04:53:33;0.20;;;0.20;;
32146;SDS011;32190;49.112;8.598;2023-03-14T04:59:24;0.22;;;0.22;;
32146;SDS011;32190;49.112;8.598;2023-03-14T05:05:15;0.35;;;0.20;;
32146;SDS011;32190;49.112;8.598;2023-03-14T05:11:05;0.40;;;0.32;;
32146;SDS011;32190;49.112;8.598;2023-03-14T05:16:56;0.20;;;0.20;;
32146;SDS011;32190;49.112;8.598;2023-03-14T05:22:47;1.95;;;0.30;;
32146;SDS011;32190;49.112;8.598;2023-03-14T05:28:37;0.90;;;0.30;;
32146;SDS011;32190;49.112;8.598;2023-03-14T05:52:29;1.13;;;0.40;;
32146;SDS011;32190;49.112;8.598;2023-03-14T05:58:20;1.08;;;0.50;;
32146;SDS011;32190;49.112;8.598;2023-03-14T06:04:11;0.20;;;0.20;;
32146;SDS011;32190;49.112;8.598;2023-03-14T06:10:01;1.17;;;0.43;;
32146;SDS011;32190;49.112;8.598;2023-03-14T06:15:52;0.47;;;0.20;;
32146;SDS011;32190;49.112;8.598;2023-03-14T06:21:43;0.47;;;0.20;;
32146;SDS011;32190;49.112;8.598;2023-03-14T06:27:34;0.85;;;0.28;;
32146;SDS011;32190;49.112;8.598;2023-03-14T06:33:24;0.57;;;0.28;;
32146;SDS011;32190;49.112;8.598;2023-03-14T06:39:15;0.38;;;0.20;;
32146;SDS011;32190;49.112;8.598;2023-03-14T06:45:06;1.50;;;0.20;;
32146;SDS011;32190;49.112;8.598;2023-03-14T06:50:57;0.52;;;0.30;;
32146;SDS011;32190;49.112;8.598;2023-03-14T06:56:47;1.38;;;0.20;;
32146;SDS011;32190;49.112;8.598;2023-03-14T07:02:38;0.63;;;0.20;;
32146;SDS011;32190;49.112;8.598;2023-03-14T07:08:29;2.33;;;0.35;;
32146;SDS011;32190;49.112;8.598;2023-03-14T07:14:20;0.35;;;0.20;;
32146;SDS011;32190;49.112;8.598;2023-03-14T07:20:10;0.75;;;0.30;;
32146;SDS011;32190;49.112;8.598;2023-03-14T07:26:01;0.20;;;0.20;;
32146;SDS011;32190;49.112;8.598;2023-03-14T07:31:52;0.35;;;0.25;;
32146;SDS011;32190;49.112;8.598;2023-03-14T07:37:42;0.38;;;0.20;;
32146;SDS011;32190;49.112;8.598;2023-03-14T07:43:33;2.30;;;0.40;;
32146;SDS011;32190;49.112;8.598;2023-03-14T07:49:24;0.20;;;0.20;;
32146;SDS011;32190;49.112;8.598;2023-03-14T07:55:14;0.65;;;0.40;;
32146;SDS011;32190;49.112;8.598;2023-03-14T08:07:56;0.90;;;0.30;;
32146;SDS011;32190;49.112;8.598;2023-03-14T08:13:58;1.65;;;0.20;;
32146;SDS011;32190;49.112;8.598;2023-03-14T08:19:52;0.60;;;0.20;;
32146;SDS011;32190;49.112;8.598;2023-03-14T08:31:43;1.20;;;0.30;;
32146;SDS011;32190;49.112;8.598;2023-03-14T08:37:34;0.20;;;0.20;;
32146;SDS011;32190;49.112;8.598;2023-03-14T08:43:26;0.20;;;0.20;;
32146;SDS011;32190;49.112;8.598;2023-03-14T08:49:19;0.55;;;0.20;;
32146;SDS011;32190;49.112;8.598;2023-03-14T08:55:10;0.80;;;0.25;;
32146;SDS011;32190;49.112;8.598;2023-03-14T09:01:01;0.25;;;0.22;;
32146;SDS011;32190;49.112;8.598;2023-03-14T09:06:51;0.20;;;0.20;;
32146;SDS011;32190;49.112;8.598;2023-03-14T09:12:42;0.20;;;0.20;;
32146;SDS011;32190;49.112;8.598;2023-03-14T09:18:33;0.65;;;0.20;;
32146;SDS011;32190;49.112;8.598;2023-03-14T09:24:23;0.20;;;0.20;;
32146;SDS011;32190;49.112;8.598;2023-03-14T09:30:14;0.43;;;0.20;;
32146;SDS011;32190;49.112;8.598;2023-03-14T09:36:05;0.20;;;0.20;;
32146;SDS011;32190;49.112;8.598;2023-03-14T09:41:57;0.47;;;0.20;;
32146;SDS011;32190;49.112;8.598;2023-03-14T09:47:51;0.28;;;0.28;;
32146;SDS011;32190;49.112;8.598;2023-03-14T09:53:43;0.52;;;0.22;;
32146;SDS011;32190;49.112;8.598;2023-03-14T09:59:35;0.30;;;0.20;;
32146;SDS011;32190;49.112;8.598;2023-03-14T10:05:27;1.25;;;0.50;;
32146;SDS011;32190;49.112;8.598;2023-03-14T10:11:19;0.22;;;0.22;;
32146;SDS011;32190;49.112;8.598;2023-03-14T10:17:12;0.20;;;0.20;;
32146;SDS011;32190;49.112;8.598;2023-03-14T10:23:04;0.10;;;0.10;;
32146;SDS011;32190;49.112;8.598;2023-03-14T10:29:11;0.20;;;0.20;;
32146;SDS011;32190;49.112;8.598;2023-03-14T10:35:23;0.95;;;0.22;;
32146;SDS011;32190;49.112;8.598;2023-03-14T10:41:19;0.20;;;0.20;;
32146;SDS011;32190;49.112;8.598;2023-03-14T10:47:18;0.20;;;0.20;;
32146;SDS011;32190;49.112;8.598;2023-03-14T10:53:10;0.10;;;0.10;;
32146;SDS011;32190;49.112;8.598;2023-03-14T10:59:00;0.20;;;0.20;;
32146;SDS011;32190;49.112;8.598;2023-03-14T11:11:24;0.55;;;0.20;;
32146;SDS011;32190;49.112;8.598;2023-03-14T11:17:27;0.30;;;0.20;;
32146;SDS011;32190;49.112;8.598;2023-03-14T11:23:42;0.50;;;0.20;;
32146;SDS011;32190;49.112;8.598;2023-03-14T11:29:59;0.35;;;0.35;;
32146;SDS011;32190;49.112;8.598;2023-03-14T11:41:52;0.20;;;0.20;;
32146;SDS011;32190;49.112;8.598;2023-03-14T11:47:45;0.20;;;0.20;;
32146;SDS011;32190;49.112;8.598;2023-03-14T11:53:48;0.30;;;0.30;;
32146;SDS011;32190;49.112;8.598;2023-03-14T12:12:13;0.30;;;0.30;;
32146;SDS011;32190;49.112;8.598;2023-03-14T12:18:21;0.30;;;0.30;;
32146;SDS011;32190;49.112;8.598;2023-03-14T12:24:23;0.20;;;0.20;;
32146;SDS011;32190;49.112;8.598;2023-03-14T12:30:21;0.25;;;0.25;;
32146;SDS011;32190;49.112;8.598;2023-03-14T12:36:30;0.30;;;0.30;;
32146;SDS011;32190;49.112;8.598;2023-03-14T12:42:45;1.45;;;0.20;;
32146;SDS011;32190;49.112;8.598;2023-03-14T12:48:50;1.00;;;0.50;;
32146;SDS011;32190;49.112;8.598;2023-03-14T13:01:17;0.93;;;0.35;;
32146;SDS011;32190;49.112;8.598;2023-03-14T13:07:28;1.10;;;0.50;;
32146;SDS011;32190;49.112;8.598;2023-03-14T13:13:23;0.30;;;0.30;;
32146;SDS011;32190;49.112;8.598;2023-03-14T13:19:25;0.30;;;0.30;;
32146;SDS011;32190;49.112;8.598;2023-03-14T13:25:19;0.63;;;0.32;;
32146;SDS011;32190;49.112;8.598;2023-03-14T13:31:20;0.55;;;0.28;;
32146;SDS011;32190;49.112;8.598;2023-03-14T13:37:20;0.40;;;0.40;;
32146;SDS011;32190;49.112;8.598;2023-03-14T13:43:27;0.35;;;0.35;;
32146;SDS011;32190;49.112;8.598;2023-03-14T13:49:23;1.25;;;0.35;;
32146;SDS011;32190;49.112;8.598;2023-03-14T13:55:16;0.55;;;0.30;;
32146;SDS011;32190;49.112;8.598;2023-03-14T14:01:26;1.38;;;0.30;;
32146;SDS011;32190;49.112;8.598;2023-03-14T14:07:21;1.52;;;0.82;;
32146;SDS011;32190;49.112;8.598;2023-03-14T14:13:13;0.35;;;0.20;;
32146;SDS011;32190;49.112;8.598;2023-03-14T14:19:08;0.52;;;0.47;;
32146;SDS011;32190;49.112;8.598;2023-03-14T14:24:59;0.30;;;0.30;;
32146;SDS011;32190;49.112;8.598;2023-03-14T14:31:02;0.30;;;0.25;;
32146;SDS011;32190;49.112;8.598;2023-03-14T14:36:55;1.35;;;0.30;;
32146;SDS011;32190;49.112;8.598;2023-03-14T14:42:46;0.70;;;0.35;;
32146;SDS011;32190;49.112;8.598;2023-03-14T14:48:37;0.55;;;0.40;;
32146;SDS011;32190;49.112;8.598;2023-03-14T14:54:33;0.77;;;0.35;;
32146;SDS011;32190;49.112;8.598;2023-03-14T15:00:26;1.00;;;0.30;;
32146;SDS011;32190;49.112;8.598;2023-03-14T15:39:50;1.15;;;0.40;;
32146;SDS011;32190;49.112;8.598;2023-03-14T15:45:41;1.35;;;0.55;;
32146;SDS011;32190;49.112;8.598;2023-03-14T15:51:31;1.25;;;0.50;;
32146;SDS011;32190;49.112;8.598;2023-03-14T15:57:22;0.75;;;0.60;;
32146;SDS011;32190;49.112;8.598;2023-03-14T16:03:13;1.00;;;0.40;;
32146;SDS011;32190;49.112;8.598;2023-03-14T16:09:03;0.40;;;0.40;;
32146;SDS011;32190;49.112;8.598;2023-03-14T16:14:54;1.83;;;0.60;;
32146;SDS011;32190;49.112;8.598;2023-03-14T16:20:50;1.48;;;0.70;;
32146;SDS011;32190;49.112;8.598;2023-03-14T16:26:42;1.50;;;0.47;;
32146;SDS011;32190;49.112;8.598;2023-03-14T16:32:34;0.65;;;0.45;;
32146;SDS011;32190;49.112;8.598;2023-03-14T16:38:25;1.65;;;0.40;;
32146;SDS011;32190;49.112;8.598;2023-03-14T16:44:16;0.73;;;0.40;;
32146;SDS011;32190;49.112;8.598;2023-03-14T16:50:07;1.25;;;0.43;;
32146;SDS011;32190;49.112;8.598;2023-03-14T16:55:58;1.17;;;0.40;;
32146;SDS011;32190;49.112;8.598;2023-03-14T17:01:49;0.73;;;0.32;;
32146;SDS011;32190;49.112;8.598;2023-03-14T17:07:39;0.45;;;0.30;;
32146;SDS011;32190;49.112;8.598;2023-03-14T17:13:30;0.47;;;0.30;;
32146;SDS011;32190;49.112;8.598;2023-03-14T17:19:20;0.85;;;0.28;;
32146;SDS011;32190;49.112;8.598;2023-03-14T17:25:11;1.15;;;0.32;;
32146;SDS011;32190;49.112;8.598;2023-03-14T17:31:03;1.23;;;0.40;;
32146;SDS011;32190;49.112;8.598;2023-03-14T17:36:55;0.68;;;0.40;;
32146;SDS011;32190;49.112;8.598;2023-03-14T18:14:34;0.68;;;0.52;;
32146;SDS011;32190;49.112;8.598;2023-03-14T18:20:26;0.70;;;0.40;;
32146;SDS011;32190;49.112;8.598;2023-03-14T18:26:17;1.50;;;0.55;;
32146;SDS011;32190;49.112;8.598;2023-03-14T18:32:08;0.98;;;0.47;;
32146;SDS011;32190;49.112;8.598;2023-03-14T18:37:59;0.45;;;0.45;;
32146;SDS011;32190;49.112;8.598;2023-03-14T18:43:50;0.82;;;0.38;;
32146;SDS011;32190;49.112;8.598;2023-03-14T18:49:42;0.40;;;0.40;;
32146;SDS011;32190;49.112;8.598;2023-03-14T18:55:33;0.28;;;0.28;;
32146;SDS011;32190;49.112;8.598;2023-03-14T19:01:23;1.13;;;0.32;;
32146;SDS011;32190;49.112;8.598;2023-03-14T19:07:19;3.13;;;0.65;;
32146;SDS011;32190;49.112;8.598;2023-03-14T19:13:12;0.68;;;0.32;;
32146;SDS011;32190;49.112;8.598;2023-03-14T19:50:09;0.30;;;0.30;;
32146;SDS011;32190;49.112;8.598;2023-03-14T19:56:00;0.45;;;0.30;;
32146;SDS011;32190;49.112;8.598;2023-03-14T20:01:51;1.58;;;0.35;;
32146;SDS011;32190;49.112;8.598;2023-03-14T20:07:43;0.30;;;0.30;;
32146;SDS011;32190;49.112;8.598;2023-03-14T20:13:35;0.45;;;0.30;;
32146;SDS011;32190;49.112;8.598;2023-03-14T20:19:26;0.45;;;0.32;;
32146;SDS011;32190;49.112;8.598;2023-03-14T20:25:17;0.35;;;0.35;;
32146;SDS011;32190;49.112;8.598;2023-03-14T20:31:08;0.30;;;0.30;;
32146;SDS011;32190;49.112;8.598;2023-03-14T20:36:58;0.95;;;0.50;;
32146;SDS011;32190;49.112;8.598;2023-03-14T20:42:51;0.57;;;0.57;;
32146;SDS011;32190;49.112;8.598;2023-03-14T20:48:42;0.40;;;0.38;;
32146;SDS011;32190;49.112;8.598;2023-03-14T20:54:33;0.40;;;0.40;;
32146;SDS011;32190;49.112;8.598;2023-03-14T21:00:24;0.98;;;0.40;;
32146;SDS011;32190;49.112;8.598;2023-03-14T21:06:16;0.70;;;0.63;;
32146;SDS011;32190;49.112;8.598;2023-03-14T21:12:06;2.03;;;0.77;;
32146;SDS011;32190;49.112;8.598;2023-03-14T21:17:57;0.82;;;0.70;;
32146;SDS011;32190;49.112;8.598;2023-03-14T21:23:54;0.93;;;0.57;;
32146;SDS011;32190;49.112;8.598;2023-03-14T21:29:44;0.52;;;0.52;;
32146;SDS011;32190;49.112;8.598;2023-03-14T21:35:35;1.95;;;0.60;;
32146;SDS011;32190;49.112;8.598;2023-03-14T21:41:26;1.33;;;0.70;;
32146;SDS011;32190;49.112;8.598;2023-03-14T21:47:16;0.52;;;0.52;;
32146;SDS011;32190;49.112;8.598;2023-03-14T21:53:08;0.75;;;0.70;;
32146;SDS011;32190;49.112;8.598;2023-03-14T21:58:59;0.75;;;0.50;;
32146;SDS011;32190;49.112;8.598;2023-03-14T22:04:50;2.38;;;0.80;;
32146;SDS011;32190;49.112;8.598;2023-03-14T22:16:40;0.63;;;0.63;;
32146;SDS011;32190;49.112;8.598;2023-03-14T22:22:31;1.15;;;0.80;;
32146;SDS011;32190;49.112;8.598;2023-03-14T22:28:21;0.70;;;0.70;;
32146;SDS011;32190;49.112;8.598;2023-03-14T22:34:12;2.38;;;0.95;;
32146;SDS011;32190;49.112;8.598;2023-03-14T22:40:03;0.82;;;0.68;;
32146;SDS011;32190;49.112;8.598;2023-03-14T22:46:00;1.08;;;0.55;;
32146;SDS011;32190;49.112;8.598;2023-03-14T22:51:52;0.70;;;0.60;;
32146;SDS011;32190;49.112;8.598;2023-03-14T22:57:43;1.35;;;0.60;;
32146;SDS011;32190;49.112;8.598;2023-03-14T23:03:33;0.93;;;0.50;;
32146;SDS011;32190;49.112;8.598;2023-03-14T23:09:24;1.33;;;0.50;;
32146;SDS011;32190;49.112;8.598;2023-03-14T23:15:14;1.05;;;0.50;;
32146;SDS011;32190;49.112;8.598;2023-03-14T23:26:57;0.52;;;0.52;;
32146;SDS011;32190;49.112;8.598;2023-03-14T23:32:47;0.45;;;0.45;;
32146;SDS011;32190;49.112;8.598;2023-03-14T23:38:39;1.17;;;0.80;;
32146;SDS011;32190;49.112;8.598;2023-03-14T23:44:30;0.45;;;0.45;;
32146;SDS011;32190;49.112;8.598;2023-03-14T23:50:21;0.90;;;0.40;;
32146;SDS011;32190;49.112;8.598;2023-03-14T23:56:12;1.20;;;0.57;;
